This is the latest recevied weather packets stored in our database for station/object SP9TWP-3. If no packets are shown the sender has not sent any weather packets the latest 10 day(s).
| Time | Temp. | Humidity | Pressure | Rain* | Wind** | Luminosity | Snow |
|---|---|---|---|---|---|---|---|
| 1777706170 | 20° C | 36% | 1024.1 hPa | - | - | - | - |
| 1777705269 | 20° C | 38% | 1024.1 hPa | - | - | - | - |
| 1777704369 | 18.33° C | 41% | 1024.1 hPa | - | - | - | - |
| 1777703469 | 17.78° C | 44% | 1024.1 hPa | - | - | - | - |
| 1777702569 | 17.22° C | 47% | 1024.2 hPa | - | - | - | - |
| 1777701669 | 16.11° C | 49% | 1024.2 hPa | - | - | - | - |
| 1777700769 | 14.44° C | 53% | 1024.1 hPa | - | - | - | - |
| 1777699869 | 13.33° C | 57% | 1024.1 hPa | - | - | - | - |
| 1777698968 | 12.22° C | 60% | 1024.1 hPa | - | - | - | - |
| 1777698068 | 11.11° C | 65% | 1024 hPa | - | - | - | - |
| 1777697168 | 10° C | 66% | 1024 hPa | - | - | - | - |
| 1777696268 | 9.44° C | 71% | 1023.8 hPa | - | - | - | - |
| 1777695368 | 8.33° C | 74% | 1023.8 hPa | - | - | - | - |
| 1777694468 | 7.78° C | 80% | 1023.6 hPa | - | - | - | - |
| 1777693567 | 6.67° C | 83% | 1023.5 hPa | - | - | - | - |
| 1777692667 | 6.67° C | 82% | 1023.5 hPa | - | - | - | - |
| 1777691767 | 6.67° C | 81% | 1023.5 hPa | - | - | - | - |
| 1777690867 | 6.67° C | 81% | 1023.6 hPa | - | - | - | - |
| 1777689967 | 6.67° C | 80% | 1023.4 hPa | - | - | - | - |
| 1777689067 | 6.67° C | 79% | 1023.4 hPa | - | - | - | - |
| 1777688167 | 6.67° C | 80% | 1023.5 hPa | - | - | - | - |
| 1777687266 | 6.67° C | 79% | 1023.5 hPa | - | - | - | - |
| 1777686366 | 7.22° C | 78% | 1023.4 hPa | - | - | - | - |
| 1777685466 | 7.78° C | 78% | 1023.5 hPa | - | - | - | - |
| 1777684566 | 7.78° C | 78% | 1023.5 hPa | - | - | - | - |
* Rain since midnight (hover to see other rain measurements)
** Current wind speed in m/s (hover to see current wind gust speed)